createdAt,value
2023-06-13T00:01:05.817Z,0.47
2023-06-13T00:03:32.272Z,0.50
2023-06-13T00:06:02.649Z,0.30
2023-06-13T00:08:36.082Z,0.30
2023-06-13T00:11:03.090Z,0.50
2023-06-13T00:13:30.121Z,0.60
2023-06-13T00:15:57.918Z,0.43
2023-06-13T00:18:24.561Z,0.70
2023-06-13T00:20:51.521Z,0.50
2023-06-13T00:23:17.966Z,0.43
2023-06-13T00:25:44.578Z,0.50
2023-06-13T00:28:11.205Z,0.55
2023-06-13T00:30:37.713Z,0.40
2023-06-13T00:33:05.793Z,0.60
2023-06-13T00:35:32.291Z,0.45
2023-06-13T00:37:58.675Z,0.45
2023-06-13T00:40:25.521Z,0.50
2023-06-13T00:42:54.967Z,0.73
2023-06-13T00:45:26.102Z,0.40
2023-06-13T00:47:53.639Z,0.60
2023-06-13T00:50:20.702Z,0.40
2023-06-13T00:52:47.989Z,0.40
2023-06-13T00:55:15.395Z,0.40
2023-06-13T00:57:41.811Z,0.30
2023-06-13T01:00:08.518Z,0.40
2023-06-13T01:02:35.046Z,0.30
2023-06-13T01:05:04.732Z,0.30
2023-06-13T01:07:34.785Z,0.28
2023-06-13T01:10:01.468Z,0.52
2023-06-13T01:12:34.948Z,0.50
2023-06-13T01:15:09.993Z,0.40
2023-06-13T01:17:37.455Z,0.40
2023-06-13T01:20:07.138Z,0.30
2023-06-13T01:22:53.597Z,0.50
2023-06-13T01:25:25.543Z,0.55
2023-06-13T01:30:19.866Z,0.40
2023-06-13T01:32:47.503Z,0.40
2023-06-13T01:35:14.555Z,0.35
2023-06-13T01:37:41.580Z,0.50
2023-06-13T01:40:09.064Z,0.60
2023-06-13T01:42:35.574Z,0.30
2023-06-13T01:45:03.835Z,0.50
2023-06-13T01:47:40.748Z,0.32
2023-06-13T01:50:16.936Z,0.50
2023-06-13T01:52:50.777Z,0.50
2023-06-13T01:55:21.289Z,0.40
2023-06-13T01:57:52.996Z,0.28
2023-06-13T02:00:20.887Z,0.40
2023-06-13T02:02:48.055Z,0.35
2023-06-13T02:05:14.752Z,0.65
2023-06-13T02:07:41.867Z,0.60
2023-06-13T02:10:08.623Z,0.60
2023-06-13T02:12:35.089Z,0.50
2023-06-13T02:15:03.623Z,0.50
2023-06-13T02:17:30.471Z,0.40
2023-06-13T02:19:56.839Z,0.30
2023-06-13T02:22:23.311Z,0.43
2023-06-13T02:24:49.773Z,0.40
2023-06-13T02:27:16.186Z,0.30
2023-06-13T02:29:43.235Z,0.50
2023-06-13T02:32:09.973Z,0.43
2023-06-13T02:34:36.358Z,0.68
2023-06-13T02:37:02.776Z,0.82
2023-06-13T02:39:29.191Z,0.90
2023-06-13T02:41:55.794Z,0.70
2023-06-13T02:44:22.377Z,0.60
2023-06-13T02:46:48.852Z,0.75
2023-06-13T02:49:15.494Z,0.47
2023-06-13T02:51:41.931Z,0.68
2023-06-13T02:54:08.534Z,0.60
2023-06-13T02:56:37.605Z,0.60
2023-06-13T02:59:04.034Z,0.50
2023-06-13T03:01:30.704Z,0.70
2023-06-13T03:03:58.192Z,0.60
2023-06-13T03:06:26.129Z,0.40
2023-06-13T03:08:53.728Z,0.80
2023-06-13T03:11:20.300Z,0.80
2023-06-13T03:13:46.725Z,0.60
2023-06-13T03:16:13.372Z,0.60
2023-06-13T03:18:39.875Z,0.60
2023-06-13T03:21:06.363Z,0.90
2023-06-13T03:23:33.122Z,0.65
2023-06-13T03:25:59.817Z,0.70
2023-06-13T03:28:27.303Z,0.90
2023-06-13T03:30:56.009Z,1.17
2023-06-13T03:33:23.557Z,0.82
2023-06-13T03:35:50.036Z,0.68
2023-06-13T03:38:16.499Z,0.52
2023-06-13T03:40:42.979Z,0.45
2023-06-13T03:43:09.381Z,0.45
2023-06-13T03:45:37.016Z,0.40
2023-06-13T03:48:03.915Z,0.70
2023-06-13T03:50:30.354Z,0.70
2023-06-13T03:52:56.765Z,0.63
2023-06-13T03:55:25.084Z,0.60
2023-06-13T03:57:51.466Z,0.50
2023-06-13T04:00:18.217Z,0.45
2023-06-13T04:02:46.366Z,0.60
2023-06-13T04:05:14.533Z,0.40
2023-06-13T04:07:41.648Z,0.60
2023-06-13T04:10:08.098Z,0.47
2023-06-13T04:12:34.437Z,0.60
2023-06-13T04:15:00.958Z,0.40
2023-06-13T04:17:27.497Z,0.60
2023-06-13T04:19:53.927Z,1.10
2023-06-13T04:22:21.316Z,0.63
2023-06-13T04:24:48.193Z,0.75
2023-06-13T04:27:21.084Z,0.60
2023-06-13T04:29:49.024Z,0.40
2023-06-13T04:32:18.859Z,0.60
2023-06-13T04:34:47.121Z,0.60
2023-06-13T04:37:14.606Z,1.08
2023-06-13T04:39:41.329Z,0.60
2023-06-13T04:42:07.807Z,0.50
2023-06-13T04:44:34.273Z,0.50
2023-06-13T04:47:02.717Z,0.60
2023-06-13T04:49:29.495Z,1.00
2023-06-13T04:51:56.276Z,0.70
2023-06-13T04:54:26.303Z,0.73
2023-06-13T04:56:52.979Z,0.70
2023-06-13T04:59:21.424Z,0.50
2023-06-13T05:01:49.093Z,0.73
2023-06-13T05:04:16.093Z,0.50
2023-06-13T05:06:43.105Z,0.50
2023-06-13T05:09:09.567Z,0.50
2023-06-13T05:11:36.273Z,0.73
2023-06-13T05:14:02.768Z,0.50
2023-06-13T05:16:31.509Z,0.63
2023-06-13T05:19:01.415Z,0.50
2023-06-13T05:21:28.614Z,1.23
2023-06-13T05:23:55.221Z,1.40
2023-06-13T05:26:21.795Z,0.90
2023-06-13T05:28:48.500Z,0.80
2023-06-13T05:31:15.235Z,0.60
2023-06-13T05:33:41.710Z,0.90
2023-06-13T05:36:08.558Z,0.82
2023-06-13T05:38:35.015Z,0.70
2023-06-13T05:41:01.431Z,1.30
2023-06-13T05:43:27.786Z,0.88
2023-06-13T05:45:54.193Z,2.38
2023-06-13T05:48:20.773Z,1.30
2023-06-13T05:50:47.284Z,1.80
2023-06-13T05:53:13.717Z,0.98
2023-06-13T05:55:40.175Z,1.50
2023-06-13T05:58:06.835Z,1.27
2023-06-13T06:00:37.211Z,1.30
2023-06-13T06:03:06.028Z,0.90
2023-06-13T06:05:32.794Z,1.00
2023-06-13T06:07:59.212Z,1.02
2023-06-13T06:10:25.789Z,1.30
2023-06-13T06:12:52.143Z,0.80
2023-06-13T06:15:18.557Z,0.50
2023-06-13T06:17:45.027Z,0.80
2023-06-13T06:20:11.744Z,0.70
2023-06-13T06:22:38.405Z,0.80
2023-06-13T06:25:04.971Z,0.90
2023-06-13T06:27:31.405Z,0.80
2023-06-13T06:29:57.736Z,1.00
2023-06-13T06:32:24.212Z,1.08
2023-06-13T06:34:50.596Z,1.38
2023-06-13T06:37:17.066Z,1.00
2023-06-13T06:39:43.610Z,1.08
2023-06-13T06:42:09.992Z,0.60
2023-06-13T06:44:44.673Z,1.13
2023-06-13T06:47:11.916Z,0.80
2023-06-13T06:49:38.445Z,1.95
2023-06-13T06:52:05.190Z,1.77
2023-06-13T06:54:32.038Z,1.70
2023-06-13T06:56:58.467Z,1.40
2023-06-13T06:59:24.875Z,1.73
2023-06-13T07:01:52.123Z,1.90
2023-06-13T07:04:18.710Z,1.67
2023-06-13T07:06:45.965Z,1.90
2023-06-13T07:09:12.521Z,1.40
2023-06-13T07:11:38.928Z,2.25
2023-06-13T07:14:05.536Z,1.20
2023-06-13T07:16:32.049Z,1.90
2023-06-13T07:18:58.570Z,2.40
2023-06-13T07:21:25.101Z,2.50
2023-06-13T07:24:06.023Z,1.83
2023-06-13T07:26:34.738Z,1.20
2023-06-13T07:29:01.190Z,2.22
2023-06-13T07:31:27.699Z,1.35
2023-06-13T07:33:54.201Z,2.15
2023-06-13T07:36:20.638Z,2.83
2023-06-13T07:38:47.147Z,2.60
2023-06-13T07:41:13.571Z,2.20
2023-06-13T07:43:40.036Z,1.73
2023-06-13T07:46:07.666Z,1.70
2023-06-13T07:48:34.414Z,1.90
2023-06-13T07:51:00.944Z,1.20
2023-06-13T07:53:27.348Z,1.85
2023-06-13T07:55:55.791Z,2.20
2023-06-13T07:58:22.227Z,2.90
2023-06-13T08:00:48.660Z,2.30
2023-06-13T08:03:15.235Z,3.30
2023-06-13T08:05:41.836Z,2.10
2023-06-13T08:08:08.229Z,1.20
2023-06-13T08:10:34.570Z,1.00
2023-06-13T08:13:01.696Z,1.55
2023-06-13T08:15:28.198Z,1.10
2023-06-13T08:17:56.043Z,0.90
2023-06-13T08:20:22.570Z,1.48
2023-06-13T08:22:49.002Z,2.40
2023-06-13T08:25:15.556Z,1.75
2023-06-13T08:27:42.941Z,1.30
2023-06-13T08:30:09.634Z,1.52
2023-06-13T08:32:36.181Z,1.20
2023-06-13T08:35:03.844Z,1.38
2023-06-13T08:37:30.335Z,2.28
2023-06-13T08:39:56.724Z,2.40
2023-06-13T08:42:23.858Z,3.10
2023-06-13T08:44:50.651Z,2.60
2023-06-13T08:47:36.378Z,1.90
2023-06-13T08:50:04.863Z,2.65
2023-06-13T08:52:36.199Z,3.15
2023-06-13T08:55:16.828Z,2.75
2023-06-13T08:57:53.642Z,3.50
2023-06-13T09:00:20.554Z,3.03
2023-06-13T09:02:47.558Z,1.40
2023-06-13T09:05:18.021Z,1.40
2023-06-13T09:07:44.836Z,1.35
2023-06-13T09:10:12.727Z,1.60
2023-06-13T09:12:43.516Z,1.42
2023-06-13T09:15:10.547Z,1.60
2023-06-13T09:17:37.194Z,2.72
2023-06-13T09:20:07.164Z,3.03
2023-06-13T09:22:34.819Z,2.55
2023-06-13T09:25:02.224Z,2.30
2023-06-13T09:27:28.732Z,2.03
2023-06-13T09:29:55.428Z,1.40
2023-06-13T09:32:23.372Z,1.33
2023-06-13T09:34:50.127Z,1.50
2023-06-13T09:37:18.491Z,1.10
2023-06-13T09:39:49.039Z,0.90
2023-06-13T09:42:16.300Z,2.70
2023-06-13T09:44:50.971Z,3.13
2023-06-13T09:47:26.488Z,1.30
2023-06-13T09:49:57.098Z,1.95
2023-06-13T09:52:24.294Z,3.15
2023-06-13T09:54:51.675Z,1.38
2023-06-13T09:57:18.415Z,0.90
2023-06-13T09:59:46.322Z,1.85
2023-06-13T10:02:12.781Z,1.63
2023-06-13T10:04:39.514Z,2.22
2023-06-13T10:07:05.962Z,1.27
2023-06-13T10:09:32.361Z,0.73
2023-06-13T10:11:59.467Z,0.80
2023-06-13T10:14:27.729Z,3.05
2023-06-13T10:17:07.899Z,1.77
2023-06-13T10:19:38.020Z,2.22
2023-06-13T10:22:05.528Z,1.40
2023-06-13T10:24:32.751Z,1.55
2023-06-13T10:26:59.796Z,1.50
2023-06-13T10:29:40.253Z,1.08
2023-06-13T10:32:06.863Z,1.27
2023-06-13T10:34:56.315Z,2.70
2023-06-13T10:37:22.786Z,3.38
2023-06-13T10:40:01.248Z,2.90
2023-06-13T10:42:33.061Z,1.92
2023-06-13T10:45:02.070Z,1.58
2023-06-13T10:47:31.666Z,1.23
2023-06-13T10:49:59.750Z,1.40
2023-06-13T10:52:26.297Z,1.33
2023-06-13T10:54:57.036Z,1.35
2023-06-13T10:57:23.798Z,1.20
2023-06-13T10:59:50.814Z,0.90
2023-06-13T11:02:18.273Z,1.00
2023-06-13T11:04:51.704Z,1.75
2023-06-13T11:07:26.958Z,1.80
2023-06-13T11:10:02.196Z,1.40
2023-06-13T11:12:28.652Z,1.83
2023-06-13T11:17:24.835Z,2.80
2023-06-13T11:19:52.890Z,1.95
2023-06-13T11:22:22.776Z,1.42
2023-06-13T11:24:49.928Z,1.80
2023-06-13T11:27:18.074Z,2.50
2023-06-13T11:29:44.988Z,1.33
2023-06-13T11:32:12.283Z,2.80
2023-06-13T11:34:48.279Z,1.83
2023-06-13T11:37:20.977Z,2.88
2023-06-13T11:40:06.815Z,2.05
2023-06-13T11:42:41.353Z,1.70
2023-06-13T11:45:08.313Z,1.50
2023-06-13T11:47:34.920Z,2.03
2023-06-13T11:50:01.482Z,1.50
2023-06-13T11:52:27.932Z,2.22
2023-06-13T11:54:55.605Z,2.45
2023-06-13T11:57:22.073Z,3.10
2023-06-13T11:59:56.798Z,2.60
2023-06-13T12:02:23.315Z,3.28
2023-06-13T12:04:51.460Z,2.28
2023-06-13T12:07:19.368Z,2.58
2023-06-13T12:09:46.438Z,3.70
2023-06-13T12:12:12.829Z,2.67
2023-06-13T12:14:39.520Z,1.27
2023-06-13T12:17:05.990Z,2.20
2023-06-13T12:19:32.994Z,1.42
2023-06-13T12:22:00.328Z,1.30
2023-06-13T12:24:27.524Z,2.25
2023-06-13T12:26:54.415Z,2.70
2023-06-13T12:29:26.027Z,2.00
2023-06-13T12:31:59.705Z,1.45
2023-06-13T12:34:32.508Z,2.15
2023-06-13T12:37:06.155Z,2.38
2023-06-13T12:39:32.953Z,2.10
2023-06-13T12:42:00.937Z,1.20
2023-06-13T12:44:29.845Z,3.55
2023-06-13T12:46:58.365Z,2.42
2023-06-13T12:49:24.760Z,2.17
2023-06-13T12:51:53.732Z,1.70
2023-06-13T12:54:26.619Z,2.45
2023-06-13T12:56:55.181Z,1.70
2023-06-13T12:59:31.959Z,1.15
2023-06-13T13:01:59.129Z,1.60
2023-06-13T13:04:29.720Z,1.27
2023-06-13T13:06:57.430Z,1.53
2023-06-13T13:09:27.735Z,1.83
2023-06-13T13:11:56.789Z,1.90
2023-06-13T13:14:24.083Z,1.58
2023-06-13T13:16:50.909Z,2.85
2023-06-13T13:19:17.270Z,1.70
2023-06-13T13:21:43.831Z,1.83
2023-06-13T13:24:10.358Z,1.23
2023-06-13T13:26:36.800Z,2.40
2023-06-13T13:29:03.387Z,1.83
2023-06-13T13:31:30.056Z,1.08
2023-06-13T13:33:58.437Z,1.00
2023-06-13T13:36:27.591Z,1.40
2023-06-13T13:38:54.138Z,1.38
2023-06-13T13:41:20.560Z,1.10
2023-06-13T13:43:47.042Z,1.10
2023-06-13T13:46:13.445Z,1.10
2023-06-13T13:48:40.177Z,1.30
2023-06-13T13:51:07.131Z,1.20
2023-06-13T13:53:33.926Z,1.02
2023-06-13T13:56:01.232Z,1.20
2023-06-13T13:58:27.586Z,1.05
2023-06-13T14:00:54.051Z,0.70
2023-06-13T14:03:20.524Z,0.40
2023-06-13T14:05:46.963Z,1.48
2023-06-13T14:08:13.360Z,1.10
2023-06-13T14:10:39.768Z,1.90
2023-06-13T14:13:06.300Z,2.95
2023-06-13T14:15:33.114Z,3.13
2023-06-13T14:17:59.737Z,2.25
2023-06-13T14:20:26.655Z,2.03
2023-06-13T14:22:53.129Z,0.80
2023-06-13T14:25:19.608Z,1.10
2023-06-13T14:27:46.015Z,1.95
2023-06-13T14:30:17.931Z,1.50
2023-06-13T14:32:44.802Z,0.60
2023-06-13T14:35:11.257Z,1.48
2023-06-13T14:37:37.606Z,2.50
2023-06-13T14:40:04.294Z,1.50
2023-06-13T14:42:30.938Z,1.80
2023-06-13T14:44:57.771Z,1.63
2023-06-13T14:47:24.263Z,1.20
2023-06-13T14:49:50.601Z,1.10
2023-06-13T14:52:17.180Z,1.15
2023-06-13T14:54:43.592Z,1.00
2023-06-13T14:57:10.011Z,1.00
2023-06-13T14:59:36.437Z,0.75
2023-06-13T15:02:02.889Z,0.77
2023-06-13T15:04:29.332Z,0.90
2023-06-13T15:06:56.453Z,1.02
2023-06-13T15:09:22.950Z,1.10
2023-06-13T15:11:49.688Z,1.15
2023-06-13T15:14:16.213Z,1.00
2023-06-13T15:16:42.738Z,2.20
2023-06-13T15:19:09.132Z,1.83
2023-06-13T15:21:36.321Z,2.08
2023-06-13T15:24:02.883Z,1.13
2023-06-13T15:26:29.384Z,1.02
2023-06-13T15:28:57.817Z,1.13
2023-06-13T15:31:24.294Z,0.88
2023-06-13T15:33:50.712Z,0.98
2023-06-13T15:36:17.139Z,1.00
2023-06-13T15:38:43.481Z,1.67
2023-06-13T15:41:09.899Z,1.27
2023-06-13T15:43:36.482Z,0.60
2023-06-13T15:46:03.138Z,1.20
2023-06-13T15:48:29.491Z,1.45
2023-06-13T15:50:55.937Z,1.25
2023-06-13T15:53:22.431Z,0.60
2023-06-13T15:55:48.968Z,1.00
2023-06-13T15:58:15.747Z,1.00
2023-06-13T16:00:42.946Z,1.13
2023-06-13T16:03:09.863Z,0.80
2023-06-13T16:05:36.936Z,0.90
2023-06-13T16:08:04.309Z,1.20
2023-06-13T16:10:30.877Z,0.90
2023-06-13T16:12:57.291Z,1.00
2023-06-13T16:15:25.240Z,1.20
2023-06-13T16:17:52.119Z,0.90
2023-06-13T16:20:18.711Z,0.60
2023-06-13T16:22:45.404Z,0.80
2023-06-13T16:25:11.848Z,1.00
2023-06-13T16:27:38.236Z,2.40
2023-06-13T16:30:06.718Z,1.40
2023-06-13T16:32:33.650Z,1.38
2023-06-13T16:35:01.838Z,1.40
2023-06-13T16:37:29.018Z,1.15
2023-06-13T16:39:55.518Z,1.20
2023-06-13T16:42:22.408Z,1.05
2023-06-13T16:44:48.885Z,1.92
2023-06-13T16:47:15.368Z,1.60
2023-06-13T16:49:41.828Z,1.20
2023-06-13T16:52:08.242Z,0.80
2023-06-13T16:54:34.661Z,1.23
2023-06-13T16:57:01.075Z,1.10
2023-06-13T16:59:27.523Z,2.72
2023-06-13T17:01:54.284Z,1.30
2023-06-13T17:04:20.941Z,1.85
2023-06-13T17:06:47.361Z,1.60
2023-06-13T17:09:13.730Z,1.23
2023-06-13T17:11:40.184Z,1.08
2023-06-13T17:14:06.877Z,0.77
2023-06-13T17:16:34.673Z,0.63
2023-06-13T17:19:01.753Z,1.10
2023-06-13T17:21:28.253Z,0.90
2023-06-13T17:23:55.016Z,1.30
2023-06-13T17:26:21.379Z,1.95
2023-06-13T17:28:47.848Z,1.42
2023-06-13T17:31:16.218Z,1.55
2023-06-13T17:33:50.370Z,1.10
2023-06-13T17:36:17.712Z,1.55
2023-06-13T17:38:44.065Z,1.70
2023-06-13T17:41:10.498Z,1.25
2023-06-13T17:43:36.833Z,0.68
2023-06-13T17:46:03.297Z,0.50
2023-06-13T17:48:29.741Z,0.90
2023-06-13T17:50:57.818Z,1.20
2023-06-13T17:53:24.392Z,1.23
2023-06-13T17:55:50.925Z,1.17
2023-06-13T17:58:17.283Z,1.13
2023-06-13T18:00:43.682Z,1.38
2023-06-13T18:05:51.031Z,1.00
2023-06-13T18:08:17.960Z,0.82
2023-06-13T18:10:44.310Z,0.88
2023-06-13T18:13:10.766Z,0.70
2023-06-13T18:15:37.338Z,0.60
2023-06-13T18:18:03.922Z,0.50
2023-06-13T18:20:30.564Z,0.60
2023-06-13T18:22:56.988Z,0.98
2023-06-13T18:25:23.757Z,0.80
2023-06-13T18:27:50.649Z,0.90
2023-06-13T18:30:17.401Z,0.70
2023-06-13T18:32:44.078Z,0.50
2023-06-13T18:35:11.102Z,0.50
2023-06-13T18:37:37.514Z,0.75
2023-06-13T18:40:04.379Z,0.60
2023-06-13T18:42:30.978Z,0.60
2023-06-13T18:44:57.785Z,0.45
2023-06-13T18:47:24.278Z,0.60
2023-06-13T18:49:50.812Z,0.50
2023-06-13T18:52:17.269Z,0.47
2023-06-13T18:54:44.837Z,0.70
2023-06-13T18:57:11.312Z,0.47
2023-06-13T18:59:38.500Z,0.50
2023-06-13T19:02:05.042Z,0.65
2023-06-13T19:04:34.110Z,0.57
2023-06-13T19:07:00.640Z,0.35
2023-06-13T19:09:27.491Z,0.40
2023-06-13T19:11:53.892Z,0.52
2023-06-13T19:14:20.258Z,0.30
2023-06-13T19:16:46.901Z,0.43
2023-06-13T19:19:13.314Z,0.63
2023-06-13T19:21:40.210Z,0.40
2023-06-13T19:24:06.780Z,0.40
2023-06-13T19:26:34.360Z,0.50
2023-06-13T19:29:01.732Z,0.40
2023-06-13T19:31:28.567Z,0.40
2023-06-13T19:33:55.271Z,0.30
2023-06-13T19:36:22.503Z,0.40
2023-06-13T19:38:48.891Z,0.40
2023-06-13T19:41:15.323Z,0.40
2023-06-13T19:43:42.285Z,0.40
2023-06-13T19:46:08.677Z,0.20
2023-06-13T19:48:35.334Z,0.28
2023-06-13T19:51:17.346Z,0.40
2023-06-13T19:53:46.666Z,0.20
2023-06-13T19:56:13.281Z,0.30
2023-06-13T19:58:40.774Z,0.38
2023-06-13T20:01:07.621Z,0.50
2023-06-13T20:03:34.135Z,0.30
2023-06-13T20:06:00.632Z,0.30
2023-06-13T20:08:27.056Z,0.30
2023-06-13T20:10:53.575Z,0.20
2023-06-13T20:13:21.179Z,0.30
2023-06-13T20:15:47.704Z,0.30
2023-06-13T20:18:14.274Z,0.30
2023-06-13T20:20:40.729Z,0.20
2023-06-13T20:23:07.647Z,0.30
2023-06-13T20:25:33.998Z,0.30
2023-06-13T20:28:00.386Z,0.40
2023-06-13T20:30:26.859Z,0.20
2023-06-13T20:32:53.519Z,0.10
2023-06-13T20:35:20.028Z,0.10
2023-06-13T20:37:46.446Z,0.20
2023-06-13T20:40:15.634Z,0.10
2023-06-13T20:42:42.210Z,0.10
2023-06-13T20:45:11.842Z,0.30
2023-06-13T20:47:39.019Z,0.20
2023-06-13T20:50:06.727Z,0.10
2023-06-13T20:52:33.899Z,0.10
2023-06-13T20:55:00.602Z,0.20
2023-06-13T20:57:28.657Z,0.20
2023-06-13T20:59:57.477Z,0.20
2023-06-13T21:02:24.121Z,0.20
2023-06-13T21:04:50.859Z,0.20
2023-06-13T21:07:17.614Z,0.30
2023-06-13T21:09:44.355Z,0.30
2023-06-13T21:12:13.074Z,0.28
2023-06-13T21:14:44.208Z,0.30
2023-06-13T21:17:10.845Z,0.20
2023-06-13T21:19:37.211Z,0.50
2023-06-13T21:22:03.749Z,0.50
2023-06-13T21:24:32.007Z,0.50
2023-06-13T21:26:58.677Z,0.30
2023-06-13T21:29:25.051Z,0.32
2023-06-13T21:31:51.525Z,0.28
2023-06-13T21:34:17.985Z,0.30
2023-06-13T21:36:44.805Z,0.30
2023-06-13T21:39:11.457Z,0.30
2023-06-13T21:41:37.839Z,0.10
2023-06-13T21:44:04.330Z,0.40
2023-06-13T21:46:30.793Z,0.28
2023-06-13T21:48:57.284Z,0.20
2023-06-13T21:51:23.659Z,0.20
2023-06-13T21:53:50.376Z,0.20
2023-06-13T21:56:16.919Z,0.30
2023-06-13T21:58:44.528Z,0.20
2023-06-13T22:01:12.578Z,0.20
2023-06-13T22:03:39.097Z,0.13
2023-06-13T22:06:05.690Z,0.20
2023-06-13T22:08:33.205Z,0.17
2023-06-13T22:10:59.808Z,0.10
2023-06-13T22:13:26.224Z,0.20
2023-06-13T22:15:53.891Z,0.25
2023-06-13T22:18:21.250Z,0.30
2023-06-13T22:20:48.768Z,0.20
2023-06-13T22:23:15.292Z,0.30
2023-06-13T22:25:41.666Z,0.20
2023-06-13T22:28:08.038Z,0.40
2023-06-13T22:30:34.476Z,0.28
2023-06-13T22:33:01.123Z,0.30
2023-06-13T22:35:27.549Z,0.30
2023-06-13T22:37:54.210Z,0.20
2023-06-13T22:40:20.971Z,0.20
2023-06-13T22:42:47.670Z,0.30
2023-06-13T22:45:15.634Z,0.30
2023-06-13T22:47:42.141Z,0.40
2023-06-13T22:50:09.745Z,0.30
2023-06-13T22:52:36.816Z,0.30
2023-06-13T22:55:04.181Z,0.30
2023-06-13T22:57:31.481Z,0.30
2023-06-13T22:59:58.525Z,0.30
2023-06-13T23:02:25.088Z,0.30
2023-06-13T23:04:54.015Z,0.20
2023-06-13T23:07:20.994Z,0.30
2023-06-13T23:09:47.538Z,0.25
2023-06-13T23:12:13.988Z,0.45
2023-06-13T23:14:40.863Z,0.50
2023-06-13T23:17:07.530Z,0.40
2023-06-13T23:19:33.947Z,0.50
2023-06-13T23:22:00.603Z,0.57
2023-06-13T23:24:27.435Z,0.40
2023-06-13T23:26:54.772Z,0.38
2023-06-13T23:29:21.459Z,0.30
2023-06-13T23:31:49.861Z,0.40
2023-06-13T23:34:16.882Z,0.28
2023-06-13T23:36:43.892Z,0.40
2023-06-13T23:39:28.284Z,0.45
2023-06-13T23:41:57.089Z,0.57
2023-06-13T23:44:23.503Z,0.40
2023-06-13T23:46:50.134Z,0.35
2023-06-13T23:49:16.608Z,0.30
2023-06-13T23:51:43.013Z,0.25
2023-06-13T23:54:09.780Z,0.38
2023-06-13T23:56:36.200Z,0.30
2023-06-13T23:59:02.573Z,0.17
